createdAt,value
2023-03-22T00:01:37.952Z,24.88
2023-03-22T00:04:06.271Z,24.86
2023-03-22T00:06:34.794Z,24.82
2023-03-22T00:09:03.209Z,24.76
2023-03-22T00:11:31.666Z,24.73
2023-03-22T00:14:00.270Z,24.65
2023-03-22T00:16:28.737Z,24.58
2023-03-22T00:18:57.209Z,24.51
2023-03-22T00:21:25.786Z,24.41
2023-03-22T00:23:54.167Z,24.32
2023-03-22T00:26:22.649Z,24.23
2023-03-22T00:28:51.135Z,24.21
2023-03-22T00:31:20.260Z,24.22
2023-03-22T00:33:48.754Z,24.33
2023-03-22T00:36:17.190Z,24.53
2023-03-22T00:38:45.781Z,24.54
2023-03-22T00:41:21.541Z,24.59
2023-03-22T00:43:51.037Z,24.70
2023-03-22T00:46:21.330Z,24.77
2023-03-22T00:48:49.748Z,24.84
2023-03-22T00:51:18.428Z,24.92
2023-03-22T00:53:49.998Z,25.00
2023-03-22T00:56:19.076Z,25.07
2023-03-22T00:58:47.355Z,25.10
2023-03-22T01:01:15.807Z,25.10
2023-03-22T01:03:44.456Z,25.09
2023-03-22T01:06:12.898Z,25.08
2023-03-22T01:08:41.387Z,25.05
2023-03-22T01:11:10.596Z,25.01
2023-03-22T01:13:39.672Z,24.97
2023-03-22T01:16:09.901Z,24.95
2023-03-22T01:18:38.394Z,24.90
2023-03-22T01:21:07.412Z,24.84
2023-03-22T01:23:35.985Z,24.78
2023-03-22T01:26:05.767Z,24.71
2023-03-22T01:28:34.459Z,24.64
2023-03-22T01:31:03.474Z,24.57
2023-03-22T01:33:31.854Z,24.50
2023-03-22T01:36:00.649Z,24.43
2023-03-22T01:38:28.997Z,24.37
2023-03-22T01:40:57.796Z,24.30
2023-03-22T01:43:26.176Z,24.24
2023-03-22T01:45:55.352Z,24.19
2023-03-22T01:48:48.915Z,24.17
2023-03-22T01:51:19.977Z,24.19
2023-03-22T01:53:55.684Z,24.23
2023-03-22T01:56:26.261Z,24.35
2023-03-22T01:58:55.765Z,24.47
2023-03-22T02:01:24.696Z,24.58
2023-03-22T02:04:03.893Z,24.72
2023-03-22T02:06:32.782Z,24.86
2023-03-22T02:09:01.477Z,24.96
2023-03-22T02:11:33.936Z,25.01
2023-03-22T02:14:11.743Z,25.08
2023-03-22T02:16:58.460Z,25.17
2023-03-22T02:20:13.120Z,25.17
2023-03-22T02:23:14.881Z,25.24
2023-03-22T02:26:20.945Z,25.31
2023-03-22T02:29:04.480Z,25.17
2023-03-22T02:31:47.916Z,25.04
2023-03-22T02:34:41.280Z,24.99
2023-03-22T02:37:27.471Z,24.94
2023-03-22T02:40:14.394Z,24.94
2023-03-22T02:42:45.733Z,24.84
2023-03-22T02:45:18.948Z,24.72
2023-03-22T02:47:54.612Z,24.65
2023-03-22T02:50:28.730Z,24.60
2023-03-22T02:53:05.875Z,24.54
2023-03-22T02:55:59.035Z,24.45
2023-03-22T02:58:57.624Z,24.56
2023-03-22T03:01:29.534Z,24.61
2023-03-22T03:04:01.473Z,24.43
2023-03-22T03:06:31.241Z,24.29
2023-03-22T03:09:05.102Z,24.18
2023-03-22T03:11:33.859Z,24.10
2023-03-22T03:14:02.142Z,24.04
2023-03-22T03:16:35.303Z,24.01
2023-03-22T03:19:11.284Z,24.05
2023-03-22T03:21:51.465Z,24.16
2023-03-22T03:24:49.720Z,24.26
2023-03-22T03:27:24.243Z,24.55
2023-03-22T03:30:02.495Z,24.69
2023-03-22T03:32:47.838Z,24.80
2023-03-22T03:35:32.761Z,24.98
2023-03-22T03:38:08.974Z,25.14
2023-03-22T03:40:42.260Z,25.17
2023-03-22T03:43:11.456Z,25.16
2023-03-22T03:45:40.189Z,25.12
2023-03-22T03:48:20.040Z,25.07
2023-03-22T03:50:51.439Z,25.17
2023-03-22T03:53:19.735Z,25.22
2023-03-22T03:55:48.146Z,25.22
2023-03-22T03:58:17.111Z,25.22
2023-03-22T04:00:46.777Z,25.25
2023-03-22T04:03:15.356Z,25.27
2023-03-22T04:05:44.077Z,25.28
2023-03-22T04:08:12.471Z,25.29
2023-03-22T04:10:41.305Z,25.28
2023-03-22T04:13:10.513Z,25.29
2023-03-22T04:15:38.820Z,25.31
2023-03-22T04:18:09.901Z,25.29
2023-03-22T04:20:42.022Z,25.29
2023-03-22T04:23:11.330Z,25.31
2023-03-22T04:25:39.716Z,25.30
2023-03-22T04:28:09.964Z,25.27
2023-03-22T04:30:39.127Z,25.27
2023-03-22T04:33:07.736Z,25.26
2023-03-22T04:35:36.238Z,25.22
2023-03-22T04:38:04.686Z,25.18
2023-03-22T04:40:36.917Z,25.08
2023-03-22T04:43:05.636Z,25.01
2023-03-22T04:45:35.346Z,24.89
2023-03-22T04:48:04.080Z,24.81
2023-03-22T04:50:32.309Z,24.83
2023-03-22T04:53:00.690Z,24.76
2023-03-22T04:55:30.291Z,24.60
2023-03-22T04:57:58.621Z,24.53
2023-03-22T05:00:30.649Z,25.03
2023-03-22T05:02:59.074Z,24.71
2023-03-22T05:05:27.461Z,24.56
2023-03-22T05:07:56.622Z,24.48
2023-03-22T05:10:24.872Z,24.44
2023-03-22T05:12:53.293Z,24.41
2023-03-22T05:15:21.792Z,24.37
2023-03-22T05:17:50.232Z,24.35
2023-03-22T05:20:18.900Z,24.34
2023-03-22T05:22:50.758Z,24.32
2023-03-22T05:25:19.139Z,24.33
2023-03-22T05:27:50.518Z,24.30
2023-03-22T05:30:19.176Z,24.28
2023-03-22T05:32:47.775Z,24.31
2023-03-22T05:35:16.350Z,24.33
2023-03-22T05:37:45.032Z,24.43
2023-03-22T05:40:13.759Z,24.56
2023-03-22T05:42:42.414Z,24.69
2023-03-22T05:45:12.337Z,24.84
2023-03-22T05:47:40.702Z,25.00
2023-03-22T05:50:10.942Z,25.14
2023-03-22T05:52:39.228Z,25.26
2023-03-22T05:55:08.096Z,25.38
2023-03-22T05:57:36.378Z,25.46
2023-03-22T06:00:13.621Z,25.52
2023-03-22T06:02:43.300Z,25.63
2023-03-22T06:05:12.063Z,25.68
2023-03-22T06:07:41.570Z,25.71
2023-03-22T06:10:12.582Z,25.73
2023-03-22T06:12:41.341Z,25.77
2023-03-22T06:15:09.991Z,25.76
2023-03-22T06:17:38.983Z,25.76
2023-03-22T06:20:12.200Z,25.81
2023-03-22T06:22:41.162Z,25.84
2023-03-22T06:25:11.239Z,25.82
2023-03-22T06:27:39.556Z,25.82
2023-03-22T06:30:08.759Z,25.81
2023-03-22T06:32:37.029Z,25.79
2023-03-22T06:35:06.022Z,25.77
2023-03-22T06:37:34.200Z,25.75
2023-03-22T06:40:02.785Z,25.72
2023-03-22T06:42:34.540Z,25.71
2023-03-22T06:45:03.428Z,25.65
2023-03-22T06:47:31.708Z,25.62
2023-03-22T06:50:00.184Z,25.60
2023-03-22T06:52:28.595Z,25.56
2023-03-22T06:54:57.252Z,25.53
2023-03-22T06:57:25.933Z,25.48
2023-03-22T06:59:54.447Z,25.42
2023-03-22T07:02:22.769Z,25.38
2023-03-22T07:04:51.206Z,25.34
2023-03-22T07:07:19.702Z,25.30
2023-03-22T07:09:48.137Z,25.24
2023-03-22T07:12:17.141Z,25.21
2023-03-22T07:14:45.720Z,25.19
2023-03-22T07:17:14.468Z,25.14
2023-03-22T07:19:43.299Z,25.11
2023-03-22T07:22:11.811Z,25.07
2023-03-22T07:24:53.817Z,25.04
2023-03-22T07:27:25.252Z,25.11
2023-03-22T07:29:53.630Z,25.06
2023-03-22T07:32:22.074Z,24.98
2023-03-22T07:34:50.578Z,24.92
2023-03-22T07:37:18.970Z,24.95
2023-03-22T07:39:47.332Z,24.92
2023-03-22T07:42:15.835Z,24.89
2023-03-22T07:44:44.299Z,24.83
2023-03-22T07:47:13.538Z,24.77
2023-03-22T07:49:41.776Z,24.73
2023-03-22T07:52:10.570Z,24.76
2023-03-22T07:54:39.456Z,25.01
2023-03-22T07:57:08.686Z,24.89
2023-03-22T07:59:39.796Z,24.76
2023-03-22T08:02:11.028Z,25.01
2023-03-22T08:04:39.529Z,24.78
2023-03-22T08:07:10.368Z,24.63
2023-03-22T08:09:39.173Z,24.52
2023-03-22T08:12:07.548Z,24.43
2023-03-22T08:14:37.907Z,24.37
2023-03-22T08:17:06.991Z,24.30
2023-03-22T08:19:36.115Z,24.24
2023-03-22T08:22:05.571Z,24.19
2023-03-22T08:24:34.036Z,24.15
2023-03-22T08:27:02.539Z,24.10
2023-03-22T08:29:30.943Z,24.06
2023-03-22T08:32:02.669Z,24.02
2023-03-22T08:34:31.650Z,23.99
2023-03-22T08:36:59.851Z,23.95
2023-03-22T08:39:28.715Z,23.91
2023-03-22T08:41:57.000Z,23.88
2023-03-22T08:44:26.200Z,23.85
2023-03-22T08:46:55.491Z,23.82
2023-03-22T08:49:23.873Z,23.80
2023-03-22T08:51:52.250Z,23.76
2023-03-22T08:54:21.051Z,23.72
2023-03-22T08:56:50.459Z,23.71
2023-03-22T08:59:18.924Z,23.69
2023-03-22T09:01:47.513Z,23.67
2023-03-22T09:04:16.408Z,23.64
2023-03-22T09:06:45.907Z,23.62
2023-03-22T09:09:14.817Z,23.60
2023-03-22T09:17:45.783Z,24.65
2023-03-22T09:20:14.153Z,24.36
2023-03-22T09:22:42.968Z,24.22
2023-03-22T09:25:12.942Z,24.02
2023-03-22T09:27:41.645Z,23.88
2023-03-22T09:30:11.386Z,23.78
2023-03-22T09:32:42.720Z,23.69
2023-03-22T09:35:11.190Z,23.62
2023-03-22T09:37:39.572Z,23.57
2023-03-22T09:40:08.664Z,23.53
2023-03-22T09:42:49.128Z,23.51
2023-03-22T09:45:21.434Z,23.51
2023-03-22T09:47:53.301Z,23.49
2023-03-22T09:50:24.267Z,23.48
2023-03-22T09:52:53.503Z,23.47
2023-03-22T09:59:47.713Z,23.46
2023-03-22T10:02:34.252Z,23.73
2023-03-22T10:05:39.808Z,23.54
2023-03-22T10:08:19.002Z,23.47
2023-03-22T10:10:47.480Z,23.41
2023-03-22T10:13:21.604Z,23.37
2023-03-22T10:15:59.993Z,23.33
2023-03-22T10:18:41.906Z,23.34
2023-03-22T10:21:12.228Z,23.34
2023-03-22T10:23:44.275Z,23.31
2023-03-22T10:26:21.930Z,23.29
2023-03-22T10:29:04.120Z,23.29
2023-03-22T10:31:34.683Z,23.32
2023-03-22T10:34:06.894Z,23.30
2023-03-22T10:36:37.455Z,23.28
2023-03-22T10:39:26.293Z,23.27
2023-03-22T10:41:57.959Z,23.41
2023-03-22T10:44:28.059Z,23.36
2023-03-22T10:46:57.671Z,23.30
2023-03-22T10:49:32.758Z,23.27
2023-03-22T10:52:14.501Z,23.29
2023-03-22T10:54:43.227Z,23.32
2023-03-22T10:57:11.776Z,23.28
2023-03-22T10:59:51.251Z,23.24
2023-03-22T11:02:22.253Z,23.24
2023-03-22T11:04:53.825Z,23.23
2023-03-22T11:07:31.166Z,23.23
2023-03-22T11:10:08.596Z,23.23
2023-03-22T11:12:59.601Z,23.21
2023-03-22T11:15:29.435Z,23.37
2023-03-22T11:18:16.156Z,23.32
2023-03-22T11:20:56.897Z,23.28
2023-03-22T11:23:26.198Z,23.33
2023-03-22T11:25:57.342Z,23.28
2023-03-22T11:28:34.857Z,23.23
2023-03-22T11:31:11.002Z,23.26
2023-03-22T11:33:58.932Z,23.23
2023-03-22T11:36:28.755Z,23.28
2023-03-22T11:38:59.379Z,23.23
2023-03-22T11:41:30.635Z,23.21
2023-03-22T11:44:03.178Z,23.20
2023-03-22T11:46:32.386Z,23.21
2023-03-22T11:49:08.547Z,23.18
2023-03-22T11:51:39.089Z,23.20
2023-03-22T11:54:09.836Z,23.21
2023-03-22T11:56:43.372Z,23.19
2023-03-22T11:59:26.756Z,23.19
2023-03-22T12:02:28.290Z,23.28
2023-03-22T12:05:02.511Z,23.23
2023-03-22T12:07:32.138Z,23.16
2023-03-22T12:10:28.994Z,23.13
2023-03-22T12:13:33.505Z,23.27
2023-03-22T12:16:05.528Z,23.39
2023-03-22T12:18:51.669Z,23.24
2023-03-22T12:21:19.982Z,23.16
2023-03-22T12:23:48.428Z,23.18
2023-03-22T12:26:28.925Z,23.08
2023-03-22T12:29:16.012Z,23.09
2023-03-22T12:31:59.642Z,23.18
2023-03-22T12:34:41.666Z,23.12
2023-03-22T12:37:16.142Z,23.04
2023-03-22T12:39:51.616Z,23.01
2023-03-22T12:42:50.811Z,22.99
2023-03-22T12:45:27.731Z,23.03
2023-03-22T12:48:06.952Z,22.94
2023-03-22T12:50:39.617Z,22.90
2023-03-22T12:53:13.536Z,22.89
2023-03-22T12:55:42.467Z,22.86
2023-03-22T12:58:14.601Z,22.81
2023-03-22T13:00:48.529Z,22.84
2023-03-22T13:03:17.877Z,22.88
2023-03-22T13:05:48.463Z,22.87
2023-03-22T13:08:21.928Z,22.86
2023-03-22T13:11:01.673Z,22.86
2023-03-22T13:13:30.066Z,22.84
2023-03-22T13:16:13.481Z,22.81
2023-03-22T13:18:45.552Z,22.78
2023-03-22T13:21:19.406Z,22.74
2023-03-22T13:23:56.857Z,22.76
2023-03-22T13:26:47.718Z,22.69
2023-03-22T13:29:37.333Z,22.74
2023-03-22T13:32:24.619Z,22.71
2023-03-22T13:34:53.763Z,22.79
2023-03-22T13:37:37.620Z,22.74
2023-03-22T13:40:30.236Z,22.74
2023-03-22T13:43:14.051Z,22.85
2023-03-22T13:46:06.522Z,22.78
2023-03-22T13:48:44.860Z,22.71
2023-03-22T13:51:22.263Z,22.67
2023-03-22T13:54:24.602Z,22.61
2023-03-22T13:57:00.458Z,22.77
2023-03-22T13:59:32.630Z,22.69
2023-03-22T14:02:18.661Z,22.63
2023-03-22T14:04:51.171Z,22.60
2023-03-22T14:07:19.886Z,22.58
2023-03-22T14:09:54.889Z,22.55
2023-03-22T14:12:32.871Z,22.53
2023-03-22T14:15:04.781Z,22.57
2023-03-22T14:17:41.195Z,22.55
2023-03-22T14:20:14.783Z,22.53
